A18 weather

Middlebrook Station Scone Airstrip
Middlebrook Station, New South Wales, Australia

Public forecast

Using degrees Celsius for public forecast. Weather courtesy of forecast.io.

Closest aviation weather report (METAR) to Middlebrook Station Scone Airstrip

Closest report is Tamworth Airport, 53.3 nm (98.7 km) N. Retrieved 2019/10/19 14:30 UTC (9 minutes ago):

YSTW 191430Z AUTO 13006KT 9999 // NCD 17/02 Q1018 RF000/0000

Closest aviation forecast (TAF) to Middlebrook Station Scone Airstrip

Closest forecast is Tamworth Airport, 53.3 nm (98.7 km) N. Retrieved 2019/10/19 12:36 UTC (2 hours ago):

TAF TAF YSTW 191113Z 1912/2006 21010KT 9999 -DU NSC FM191400 16007KT CAVOK FM200000 20010KT CAVOK PROB30 1912/1914 5000 BLDU